createdAt,value
2023-10-06T00:01:22.473Z,65.75
2023-10-06T00:03:58.662Z,65.64
2023-10-06T00:06:28.680Z,65.69
2023-10-06T00:08:58.329Z,65.83
2023-10-06T00:11:32.839Z,65.53
2023-10-06T00:14:05.730Z,65.38
2023-10-06T00:16:40.597Z,65.56
2023-10-06T00:19:27.916Z,65.78
2023-10-06T00:22:11.172Z,65.87
2023-10-06T00:24:42.760Z,65.87
2023-10-06T00:27:12.713Z,65.92
2023-10-06T00:29:48.757Z,65.57
2023-10-06T00:32:28.014Z,65.98
2023-10-06T00:35:12.389Z,66.00
2023-10-06T00:37:42.017Z,65.78
2023-10-06T00:40:20.678Z,65.91
2023-10-06T00:42:53.288Z,65.69
2023-10-06T00:45:25.716Z,65.60
2023-10-06T00:47:55.407Z,66.10
2023-10-06T00:50:25.882Z,65.79
2023-10-06T00:52:57.116Z,65.62
2023-10-06T00:55:27.539Z,65.59
2023-10-06T00:57:56.238Z,65.96
2023-10-06T01:00:26.283Z,66.03
2023-10-06T01:02:55.024Z,65.98
2023-10-06T01:05:26.731Z,65.76
2023-10-06T01:07:55.782Z,65.61
2023-10-06T01:10:29.595Z,65.71
2023-10-06T01:12:58.747Z,65.55
2023-10-06T01:15:30.997Z,65.48
2023-10-06T01:18:00.591Z,65.42
2023-10-06T01:20:35.510Z,65.80
2023-10-06T01:23:20.838Z,65.33
2023-10-06T01:25:54.617Z,65.45
2023-10-06T01:28:24.766Z,65.47
2023-10-06T01:30:53.993Z,65.52
2023-10-06T01:33:23.162Z,65.58
2023-10-06T01:35:51.886Z,65.33
2023-10-06T01:38:24.011Z,65.50
2023-10-06T01:40:54.628Z,65.44
2023-10-06T01:43:31.157Z,64.93
2023-10-06T01:46:00.761Z,65.46
2023-10-06T01:48:31.818Z,65.28
2023-10-06T01:51:00.571Z,65.45
2023-10-06T01:53:34.993Z,65.24
2023-10-06T01:56:08.359Z,65.08
2023-10-06T01:58:39.172Z,65.13
2023-10-06T02:01:08.452Z,65.25
2023-10-06T02:03:41.780Z,65.36
2023-10-06T02:06:17.586Z,65.39
2023-10-06T02:08:53.838Z,65.38
2023-10-06T02:11:31.955Z,65.23
2023-10-06T02:14:00.838Z,65.19
2023-10-06T02:16:29.759Z,65.18
2023-10-06T02:18:58.449Z,65.17
2023-10-06T02:21:30.028Z,64.93
2023-10-06T02:24:04.842Z,65.30
2023-10-06T02:26:37.460Z,65.79
2023-10-06T02:29:16.862Z,65.24
2023-10-06T02:31:45.565Z,65.13
2023-10-06T02:34:22.511Z,64.88
2023-10-06T02:36:51.701Z,64.83
2023-10-06T02:39:22.308Z,64.78
2023-10-06T02:41:54.323Z,65.13
2023-10-06T02:44:24.277Z,64.93
2023-10-06T02:46:53.590Z,64.78
2023-10-06T02:49:33.160Z,65.01
2023-10-06T02:52:06.355Z,65.02
2023-10-06T02:54:45.832Z,65.15
2023-10-06T02:57:21.267Z,65.02
2023-10-06T02:59:50.319Z,65.27
2023-10-06T03:02:21.262Z,64.96
2023-10-06T03:04:56.528Z,64.73
2023-10-06T03:07:25.202Z,65.09
2023-10-06T03:09:55.272Z,64.97
2023-10-06T03:12:32.880Z,64.92
2023-10-06T03:15:02.407Z,65.23
2023-10-06T03:17:31.871Z,64.74
2023-10-06T03:20:11.245Z,64.94
2023-10-06T03:22:41.791Z,64.98
2023-10-06T03:25:17.099Z,65.16
2023-10-06T03:27:47.885Z,64.87
2023-10-06T03:30:28.049Z,64.94
2023-10-06T03:32:59.161Z,65.11
2023-10-06T03:35:37.768Z,65.30
2023-10-06T03:38:28.858Z,65.18
2023-10-06T03:41:14.432Z,65.57
2023-10-06T03:43:49.196Z,65.68
2023-10-06T03:46:20.272Z,65.36
2023-10-06T03:48:53.276Z,65.62
2023-10-06T03:51:22.870Z,65.83
2023-10-06T03:53:51.717Z,65.57
2023-10-06T03:56:22.754Z,65.64
2023-10-06T03:58:54.642Z,65.72
2023-10-06T04:01:27.914Z,65.60
2023-10-06T04:03:59.738Z,65.34
2023-10-06T04:06:29.268Z,65.54
2023-10-06T04:09:00.770Z,65.47
2023-10-06T04:11:31.595Z,65.05
2023-10-06T04:14:00.694Z,65.46
2023-10-06T04:16:34.033Z,65.64
2023-10-06T04:19:04.623Z,65.65
2023-10-06T04:21:37.159Z,65.26
2023-10-06T04:24:07.678Z,65.13
2023-10-06T04:26:40.961Z,65.30
2023-10-06T04:29:14.709Z,65.43
2023-10-06T04:31:44.111Z,65.04
2023-10-06T04:34:13.018Z,64.92
2023-10-06T04:36:42.107Z,65.65
2023-10-06T04:39:12.638Z,67.72
2023-10-06T04:41:42.703Z,69.21
2023-10-06T04:44:11.742Z,68.86
2023-10-06T04:46:40.963Z,68.02
2023-10-06T04:49:09.981Z,67.93
2023-10-06T04:51:39.238Z,67.86
2023-10-06T04:54:09.598Z,67.68
2023-10-06T04:56:38.509Z,67.50
2023-10-06T04:59:12.527Z,67.34
2023-10-06T05:01:41.692Z,67.39
2023-10-06T05:04:10.486Z,67.26
2023-10-06T05:06:39.315Z,67.00
2023-10-06T05:09:10.968Z,67.14
2023-10-06T05:11:39.741Z,67.17
2023-10-06T05:14:10.618Z,67.00
2023-10-06T05:16:39.581Z,66.99
2023-10-06T05:19:09.256Z,66.84
2023-10-06T05:21:38.482Z,66.56
2023-10-06T05:24:09.948Z,66.66
2023-10-06T05:26:38.725Z,66.76
2023-10-06T05:29:11.034Z,66.50
2023-10-06T05:31:41.506Z,66.45
2023-10-06T05:34:11.865Z,66.43
2023-10-06T05:36:40.531Z,66.35
2023-10-06T05:39:12.914Z,66.39
2023-10-06T05:41:45.540Z,66.21
2023-10-06T05:44:15.168Z,66.33
2023-10-06T05:46:45.288Z,66.17
2023-10-06T05:49:13.912Z,66.09
2023-10-06T05:51:45.102Z,65.96
2023-10-06T05:54:22.892Z,65.99
2023-10-06T05:56:54.363Z,65.74
2023-10-06T05:59:23.197Z,65.96
2023-10-06T06:01:57.544Z,65.92
2023-10-06T06:04:28.753Z,65.86
2023-10-06T06:06:58.870Z,65.83
2023-10-06T06:09:28.881Z,65.92
2023-10-06T06:11:59.498Z,66.05
2023-10-06T06:14:28.308Z,65.42
2023-10-06T06:16:58.491Z,65.92
2023-10-06T06:19:27.200Z,65.66
2023-10-06T06:21:55.807Z,65.46
2023-10-06T06:24:24.472Z,65.55
2023-10-06T06:26:53.139Z,65.63
2023-10-06T06:29:22.053Z,65.32
2023-10-06T06:31:54.114Z,65.24
2023-10-06T06:34:24.286Z,65.10
2023-10-06T06:36:52.953Z,65.20
2023-10-06T06:39:24.274Z,65.30
2023-10-06T06:41:54.724Z,65.34
2023-10-06T06:44:27.160Z,65.56
2023-10-06T06:46:56.168Z,65.41
2023-10-06T06:49:28.036Z,65.33
2023-10-06T06:51:59.890Z,65.40
2023-10-06T06:54:28.613Z,65.30
2023-10-06T06:56:57.288Z,65.24
2023-10-06T06:59:27.080Z,65.19
2023-10-06T07:01:55.781Z,65.08
2023-10-06T07:04:27.368Z,64.80
2023-10-06T07:06:57.512Z,64.98
2023-10-06T07:09:26.282Z,65.03
2023-10-06T07:11:56.081Z,64.63
2023-10-06T07:14:24.848Z,64.82
2023-10-06T07:16:53.609Z,64.54
2023-10-06T07:19:22.804Z,64.46
2023-10-06T07:21:52.157Z,64.40
2023-10-06T07:24:22.206Z,64.25
2023-10-06T07:26:51.421Z,64.56
2023-10-06T07:29:20.083Z,64.09
2023-10-06T07:31:49.992Z,64.05
2023-10-06T07:34:20.056Z,64.20
2023-10-06T07:36:48.710Z,63.90
2023-10-06T07:39:22.019Z,63.91
2023-10-06T07:41:52.306Z,63.92
2023-10-06T07:44:22.178Z,63.79
2023-10-06T07:46:53.675Z,63.56
2023-10-06T07:49:22.882Z,63.66
2023-10-06T07:51:51.517Z,63.80
2023-10-06T07:54:20.224Z,63.65
2023-10-06T07:56:48.865Z,63.64
2023-10-06T07:59:18.946Z,63.61
2023-10-06T08:01:49.718Z,63.52
2023-10-06T08:04:18.537Z,63.20
2023-10-06T08:06:47.422Z,63.27
2023-10-06T08:09:18.394Z,63.07
2023-10-06T08:11:47.106Z,63.02
2023-10-06T08:14:15.929Z,62.97
2023-10-06T08:16:47.126Z,62.83
2023-10-06T08:19:15.824Z,62.99
2023-10-06T08:21:44.574Z,62.76
2023-10-06T08:24:13.793Z,62.54
2023-10-06T08:26:42.649Z,62.76
2023-10-06T08:29:11.398Z,62.76
2023-10-06T08:31:40.351Z,62.69
2023-10-06T08:34:13.127Z,62.67
2023-10-06T08:36:42.877Z,62.40
2023-10-06T08:39:14.626Z,62.16
2023-10-06T08:41:47.148Z,62.63
2023-10-06T08:44:17.107Z,62.36
2023-10-06T08:46:46.063Z,62.31
2023-10-06T08:49:20.437Z,62.37
2023-10-06T08:51:51.712Z,61.94
2023-10-06T08:54:21.195Z,62.13
2023-10-06T08:56:50.628Z,62.07
2023-10-06T08:59:21.439Z,62.31
2023-10-06T09:01:50.400Z,61.84
2023-10-06T09:04:22.395Z,62.45
2023-10-06T09:07:14.261Z,62.21
2023-10-06T09:09:44.426Z,61.53
2023-10-06T09:12:25.009Z,62.15
2023-10-06T09:14:55.688Z,62.24
2023-10-06T09:17:34.827Z,62.73
2023-10-06T09:20:13.418Z,61.88
2023-10-06T09:22:51.250Z,61.93
2023-10-06T09:25:22.491Z,63.88
2023-10-06T09:28:03.085Z,62.06
2023-10-06T09:30:32.295Z,62.18
2023-10-06T09:33:06.011Z,62.60
2023-10-06T09:35:36.251Z,62.76
2023-10-06T09:38:14.933Z,62.58
2023-10-06T09:40:45.167Z,61.92
2023-10-06T09:43:18.286Z,61.60
2023-10-06T09:45:49.498Z,61.75
2023-10-06T09:48:27.367Z,61.82
2023-10-06T09:50:58.931Z,61.73
2023-10-06T09:53:29.318Z,61.39
2023-10-06T09:55:59.361Z,61.90
2023-10-06T09:58:30.059Z,61.66
2023-10-06T10:01:00.865Z,62.32
2023-10-06T10:03:30.815Z,61.73
2023-10-06T10:06:05.587Z,61.54
2023-10-06T10:08:35.522Z,61.99
2023-10-06T10:11:08.541Z,61.98
2023-10-06T10:13:52.047Z,61.96
2023-10-06T10:16:38.051Z,61.72
2023-10-06T10:19:12.273Z,61.84
2023-10-06T10:21:44.281Z,62.00
2023-10-06T10:24:53.240Z,61.88
2023-10-06T10:27:14.200Z,61.89
2023-10-06T10:29:43.362Z,61.68
2023-10-06T10:32:16.493Z,61.84
2023-10-06T10:35:08.410Z,61.51
2023-10-06T10:38:04.288Z,61.59
2023-10-06T10:40:48.506Z,61.29
2023-10-06T10:43:17.976Z,61.28
2023-10-06T10:45:49.261Z,61.14
2023-10-06T10:48:19.723Z,61.17
2023-10-06T10:51:03.130Z,61.25
2023-10-06T10:53:36.459Z,61.22
2023-10-06T10:56:08.117Z,60.97
2023-10-06T10:58:59.247Z,61.17
2023-10-06T11:01:31.187Z,60.89
2023-10-06T11:04:30.769Z,60.98
2023-10-06T11:07:05.915Z,61.08
2023-10-06T11:09:41.724Z,61.28
2023-10-06T11:12:26.186Z,61.15
2023-10-06T11:15:04.017Z,61.37
2023-10-06T11:17:34.376Z,61.50
2023-10-06T11:20:14.833Z,61.58
2023-10-06T11:22:54.989Z,61.60
2023-10-06T11:25:28.781Z,61.39
2023-10-06T11:27:58.823Z,61.67
2023-10-06T11:30:29.761Z,61.72
2023-10-06T11:32:59.292Z,61.35
2023-10-06T11:35:28.244Z,61.28
2023-10-06T11:37:57.159Z,61.24
2023-10-06T11:40:28.391Z,61.69
2023-10-06T11:42:56.982Z,61.16
2023-10-06T11:45:28.773Z,61.50
2023-10-06T11:47:59.378Z,61.43
2023-10-06T11:50:33.614Z,61.60
2023-10-06T11:53:02.698Z,61.40
2023-10-06T11:55:35.401Z,61.08
2023-10-06T11:58:06.255Z,61.44
2023-10-06T12:00:40.241Z,61.40
2023-10-06T12:03:11.684Z,61.20
2023-10-06T12:05:43.619Z,61.27
2023-10-06T12:08:13.692Z,61.02
2023-10-06T12:10:51.689Z,61.28
2023-10-06T12:13:21.030Z,61.33
2023-10-06T12:15:49.764Z,61.20
2023-10-06T12:18:18.636Z,61.27
2023-10-06T12:20:47.607Z,61.73
2023-10-06T12:23:16.833Z,62.01
2023-10-06T12:25:46.179Z,61.92
2023-10-06T12:28:18.670Z,61.99
2023-10-06T12:30:53.778Z,62.10
2023-10-06T12:33:24.041Z,62.39
2023-10-06T12:35:53.700Z,62.52
2023-10-06T12:38:23.855Z,62.93
2023-10-06T12:40:54.146Z,62.49
2023-10-06T12:43:25.947Z,62.71
2023-10-06T12:45:54.701Z,62.69
2023-10-06T12:48:23.437Z,62.61
2023-10-06T12:50:52.082Z,63.11
2023-10-06T12:53:20.754Z,62.63
2023-10-06T12:55:57.926Z,62.83
2023-10-06T12:58:28.235Z,62.26
2023-10-06T13:00:57.015Z,62.15
2023-10-06T13:03:26.730Z,61.99
2023-10-06T13:05:55.724Z,62.55
2023-10-06T13:08:26.310Z,61.91
2023-10-06T13:10:56.044Z,62.11
2023-10-06T13:13:25.140Z,61.75
2023-10-06T13:15:55.458Z,61.62
2023-10-06T13:18:24.213Z,62.26
2023-10-06T13:20:53.666Z,62.02
2023-10-06T13:23:27.846Z,61.76
2023-10-06T13:25:59.548Z,61.69
2023-10-06T13:28:29.395Z,61.60
2023-10-06T13:31:00.293Z,62.27
2023-10-06T13:33:30.300Z,62.17
2023-10-06T13:36:00.616Z,61.69
2023-10-06T13:38:32.550Z,61.80
2023-10-06T13:41:01.836Z,61.95
2023-10-06T13:43:31.168Z,61.71
2023-10-06T13:46:02.436Z,61.77
2023-10-06T13:48:32.973Z,61.55
2023-10-06T13:51:03.960Z,61.79
2023-10-06T13:53:33.358Z,61.90
2023-10-06T13:56:03.531Z,61.74
2023-10-06T13:58:34.466Z,61.66
2023-10-06T14:01:05.722Z,61.72
2023-10-06T14:03:34.803Z,61.50
2023-10-06T14:06:05.656Z,61.52
2023-10-06T14:08:35.706Z,61.57
2023-10-06T14:11:06.720Z,61.69
2023-10-06T14:13:35.434Z,61.49
2023-10-06T14:16:11.438Z,61.74
2023-10-06T14:18:41.666Z,61.74
2023-10-06T14:21:15.334Z,61.87
2023-10-06T14:23:48.517Z,61.59
2023-10-06T14:26:19.838Z,61.94
2023-10-06T14:28:56.263Z,61.98
2023-10-06T14:31:34.968Z,61.80
2023-10-06T14:34:32.172Z,62.01
2023-10-06T14:37:02.377Z,61.91
2023-10-06T14:39:48.556Z,61.64
2023-10-06T14:42:34.673Z,61.63
2023-10-06T14:45:21.113Z,61.96
2023-10-06T14:47:52.455Z,62.79
2023-10-06T14:50:21.714Z,62.74
2023-10-06T14:52:52.602Z,62.34
2023-10-06T14:55:22.879Z,62.01
2023-10-06T14:57:51.622Z,61.95
2023-10-06T15:00:21.203Z,62.02
2023-10-06T15:02:51.644Z,62.40
2023-10-06T15:05:20.828Z,62.23
2023-10-06T15:07:49.553Z,61.99
2023-10-06T15:10:19.668Z,62.46
2023-10-06T15:12:49.573Z,61.52
2023-10-06T15:15:18.971Z,61.57
2023-10-06T15:17:57.074Z,61.70
2023-10-06T15:20:34.866Z,61.43
2023-10-06T15:23:04.182Z,61.62
2023-10-06T15:25:32.921Z,61.62
2023-10-06T15:28:04.334Z,61.46
2023-10-06T15:30:36.732Z,61.11
2023-10-06T15:33:05.966Z,61.06
2023-10-06T15:35:37.332Z,61.53
2023-10-06T15:38:11.587Z,61.32
2023-10-06T15:40:40.326Z,61.14
2023-10-06T15:43:19.876Z,61.01
2023-10-06T15:45:58.024Z,61.36
2023-10-06T15:48:27.372Z,61.70
2023-10-06T15:51:00.320Z,61.50
2023-10-06T15:53:30.107Z,61.37
2023-10-06T15:56:03.935Z,61.85
2023-10-06T15:58:34.022Z,62.37
2023-10-06T16:01:06.490Z,62.35
2023-10-06T16:03:35.653Z,62.51
2023-10-06T16:06:05.816Z,62.49
2023-10-06T16:08:34.793Z,63.17
2023-10-06T16:11:04.122Z,63.15
2023-10-06T16:13:32.978Z,63.44
2023-10-06T16:16:11.773Z,63.61
2023-10-06T16:18:42.565Z,63.28
2023-10-06T16:21:13.905Z,63.23
2023-10-06T16:23:43.238Z,63.42
2023-10-06T16:26:12.912Z,63.98
2023-10-06T16:28:42.237Z,63.43
2023-10-06T16:31:11.619Z,63.51
2023-10-06T16:33:42.465Z,63.94
2023-10-06T16:36:13.590Z,63.43
2023-10-06T16:38:43.124Z,64.00
2023-10-06T16:41:13.581Z,63.73
2023-10-06T16:43:42.987Z,63.92
2023-10-06T16:46:12.088Z,63.38
2023-10-06T16:48:41.018Z,63.24
2023-10-06T16:51:10.399Z,63.64
2023-10-06T16:53:40.602Z,63.10
2023-10-06T16:56:09.660Z,63.11
2023-10-06T16:58:38.401Z,63.64
2023-10-06T17:01:08.836Z,63.27
2023-10-06T17:03:38.359Z,63.06
2023-10-06T17:06:08.802Z,63.54
2023-10-06T17:08:37.844Z,63.53
2023-10-06T17:11:16.874Z,63.06
2023-10-06T17:13:48.639Z,63.17
2023-10-06T17:16:17.748Z,63.29
2023-10-06T17:18:46.464Z,63.41
2023-10-06T17:21:15.188Z,62.98
2023-10-06T17:26:35.621Z,63.28
2023-10-06T17:29:04.483Z,63.40
2023-10-06T17:31:35.778Z,63.01
2023-10-06T17:34:05.811Z,63.18
2023-10-06T17:36:34.491Z,62.80
2023-10-06T17:39:04.158Z,63.15
2023-10-06T17:41:33.071Z,63.08
2023-10-06T17:44:03.152Z,62.84
2023-10-06T17:46:33.236Z,62.73
2023-10-06T17:49:01.949Z,63.11
2023-10-06T17:51:30.648Z,62.90
2023-10-06T17:53:59.279Z,62.97
2023-10-06T17:56:29.966Z,63.10
2023-10-06T17:58:58.794Z,62.34
2023-10-06T18:01:29.221Z,62.94
2023-10-06T18:03:58.459Z,62.59
2023-10-06T18:06:27.315Z,62.78
2023-10-06T18:08:56.259Z,62.63
2023-10-06T18:11:25.950Z,62.47
2023-10-06T18:13:55.843Z,62.79
2023-10-06T18:16:26.638Z,62.77
2023-10-06T18:18:57.065Z,62.70
2023-10-06T18:21:26.066Z,62.35
2023-10-06T18:23:57.820Z,62.30
2023-10-06T18:26:26.544Z,62.52
2023-10-06T18:28:55.910Z,62.46
2023-10-06T18:31:26.380Z,62.62
2023-10-06T18:33:56.554Z,62.95
2023-10-06T18:36:25.881Z,62.51
2023-10-06T18:38:57.252Z,62.50
2023-10-06T18:41:27.577Z,62.44
2023-10-06T18:43:56.419Z,62.53
2023-10-06T18:46:26.723Z,62.67
2023-10-06T18:48:56.922Z,62.79
2023-10-06T18:51:26.626Z,62.54
2023-10-06T18:53:55.941Z,62.84
2023-10-06T18:56:24.895Z,62.44
2023-10-06T18:58:54.501Z,63.04
2023-10-06T19:01:23.342Z,62.54
2023-10-06T19:03:52.148Z,62.66
2023-10-06T19:06:22.419Z,62.85
2023-10-06T19:08:52.498Z,62.84
2023-10-06T19:11:21.754Z,62.78
2023-10-06T19:13:50.913Z,63.01
2023-10-06T19:16:21.243Z,62.87
2023-10-06T19:18:51.498Z,63.05
2023-10-06T19:21:24.713Z,62.68
2023-10-06T19:23:53.724Z,62.97
2023-10-06T19:26:23.279Z,63.11
2023-10-06T19:28:52.090Z,63.06
2023-10-06T19:31:21.872Z,63.15
2023-10-06T19:33:51.802Z,62.78
2023-10-06T19:36:22.564Z,62.79
2023-10-06T19:38:52.141Z,62.64
2023-10-06T19:41:22.870Z,62.69
2023-10-06T19:43:51.827Z,62.81
2023-10-06T19:46:20.857Z,62.77
2023-10-06T19:48:54.973Z,62.98
2023-10-06T19:51:25.957Z,62.40
2023-10-06T19:53:55.074Z,63.24
2023-10-06T19:56:25.681Z,62.70
2023-10-06T19:58:55.438Z,63.11
2023-10-06T20:01:25.602Z,62.76
2023-10-06T20:03:54.781Z,63.22
2023-10-06T20:06:25.252Z,63.04
2023-10-06T20:08:55.569Z,63.19
2023-10-06T20:11:24.332Z,63.28
2023-10-06T20:13:53.174Z,63.19
2023-10-06T20:16:22.204Z,63.16
2023-10-06T20:18:50.947Z,63.35
2023-10-06T20:21:21.843Z,62.99
2023-10-06T20:23:52.490Z,63.26
2023-10-06T20:26:21.702Z,63.32
2023-10-06T20:28:50.975Z,63.05
2023-10-06T20:31:19.865Z,63.28
2023-10-06T20:33:49.075Z,63.19
2023-10-06T20:36:17.794Z,63.17
2023-10-06T20:38:46.545Z,63.10
2023-10-06T20:41:16.689Z,63.29
2023-10-06T20:43:45.444Z,62.79
2023-10-06T20:46:15.670Z,63.11
2023-10-06T20:48:44.756Z,62.81
2023-10-06T20:51:18.717Z,62.45
2023-10-06T20:53:48.071Z,62.56
2023-10-06T20:56:19.912Z,62.43
2023-10-06T20:58:49.136Z,62.57
2023-10-06T21:01:18.870Z,62.31
2023-10-06T21:03:49.085Z,62.37
2023-10-06T21:06:18.120Z,62.35
2023-10-06T21:08:48.119Z,62.58
2023-10-06T21:11:18.205Z,62.49
2023-10-06T21:13:46.913Z,62.75
2023-10-06T21:16:15.680Z,62.77
2023-10-06T21:18:44.444Z,62.88
2023-10-06T21:21:13.052Z,63.02
2023-10-06T21:23:41.716Z,62.99
2023-10-06T21:26:11.950Z,62.75
2023-10-06T21:28:42.646Z,63.17
2023-10-06T21:31:11.543Z,63.03
2023-10-06T21:33:40.251Z,63.37
2023-10-06T21:36:09.095Z,63.29
2023-10-06T21:38:37.833Z,63.35
2023-10-06T21:41:06.539Z,63.29
2023-10-06T21:43:35.241Z,63.19
2023-10-06T21:46:07.895Z,63.15
2023-10-06T21:48:36.679Z,63.19
2023-10-06T21:51:07.566Z,63.47
2023-10-06T21:53:36.297Z,63.58
2023-10-06T21:56:11.901Z,63.40
2023-10-06T21:58:41.074Z,63.40
2023-10-06T22:01:15.068Z,63.57
2023-10-06T22:03:45.815Z,63.55
2023-10-06T22:06:14.602Z,63.59
2023-10-06T22:08:43.700Z,63.74
2023-10-06T22:11:13.072Z,63.77
2023-10-06T22:13:44.024Z,63.38
2023-10-06T22:16:14.960Z,63.63
2023-10-06T22:18:44.498Z,63.65
2023-10-06T22:21:15.158Z,63.46
2023-10-06T22:23:44.890Z,63.53
2023-10-06T22:26:15.656Z,63.72
2023-10-06T22:28:44.605Z,63.71
2023-10-06T22:31:14.719Z,63.76
2023-10-06T22:33:43.407Z,63.69
2023-10-06T22:36:13.741Z,63.76
2023-10-06T22:38:42.621Z,63.89
2023-10-06T22:41:11.380Z,64.05
2023-10-06T22:43:42.060Z,64.31
2023-10-06T22:46:10.808Z,64.25
2023-10-06T22:48:41.378Z,64.27
2023-10-06T22:51:10.212Z,64.49
2023-10-06T22:53:39.704Z,64.32
2023-10-06T22:56:08.812Z,64.58
2023-10-06T22:58:38.110Z,64.70
2023-10-06T23:01:07.009Z,64.55
2023-10-06T23:03:36.935Z,64.25
2023-10-06T23:06:09.996Z,64.81
2023-10-06T23:08:38.965Z,64.77
2023-10-06T23:11:07.807Z,64.65
2023-10-06T23:13:39.957Z,64.53
2023-10-06T23:16:10.966Z,65.11
2023-10-06T23:18:39.885Z,65.06
2023-10-06T23:21:13.466Z,64.96
2023-10-06T23:23:43.052Z,65.33
2023-10-06T23:26:11.852Z,65.26
2023-10-06T23:28:41.885Z,65.30
2023-10-06T23:31:10.628Z,65.11
2023-10-06T23:33:40.396Z,64.98
2023-10-06T23:36:10.480Z,65.37
2023-10-06T23:38:39.218Z,65.18
2023-10-06T23:41:12.401Z,65.56
2023-10-06T23:43:42.357Z,65.41
2023-10-06T23:46:16.453Z,65.57
2023-10-06T23:48:47.627Z,65.25
2023-10-06T23:51:17.753Z,65.06
2023-10-06T23:53:46.782Z,65.69
2023-10-06T23:56:35.301Z,65.70
2023-10-06T23:59:11.236Z,65.79
